createdAt,value
2018-01-07T00:00:59.852Z,8.87
2018-01-07T00:03:28.710Z,9.07
2018-01-07T00:05:57.598Z,9.00
2018-01-07T00:08:26.433Z,9.40
2018-01-07T00:10:55.271Z,9.00
2018-01-07T00:13:24.148Z,7.87
2018-01-07T00:15:52.992Z,8.80
2018-01-07T00:18:21.835Z,8.60
2018-01-07T00:20:50.703Z,7.80
2018-01-07T00:23:19.547Z,8.70
2018-01-07T00:25:48.424Z,8.07
2018-01-07T00:28:17.857Z,8.27
2018-01-07T00:30:46.693Z,8.63
2018-01-07T00:33:15.571Z,7.83
2018-01-07T00:35:44.634Z,7.83
2018-01-07T00:38:14.865Z,8.23
2018-01-07T00:40:43.775Z,8.50
2018-01-07T00:43:12.626Z,8.13
2018-01-07T00:45:41.478Z,7.67
2018-01-07T00:48:10.414Z,8.20
2018-01-07T00:50:39.818Z,7.93
2018-01-07T00:53:08.649Z,7.60
2018-01-07T00:55:37.517Z,7.67
2018-01-07T00:58:06.394Z,7.63
2018-01-07T01:00:35.557Z,7.20
2018-01-07T01:03:04.797Z,7.57
2018-01-07T01:05:34.171Z,7.90
2018-01-07T01:08:03.312Z,7.90
2018-01-07T01:10:32.247Z,7.63
2018-01-07T01:13:01.150Z,8.33
2018-01-07T01:15:29.991Z,7.87
2018-01-07T01:17:58.841Z,7.87
2018-01-07T01:20:28.753Z,7.97
2018-01-07T01:23:00.485Z,8.10
2018-01-07T01:25:30.115Z,7.93
2018-01-07T01:27:59.045Z,7.23
2018-01-07T01:30:28.363Z,8.00
2018-01-07T01:32:57.201Z,8.33
2018-01-07T01:35:26.124Z,7.40
2018-01-07T01:37:54.956Z,7.80
2018-01-07T01:40:23.807Z,8.10
2018-01-07T01:42:53.012Z,7.93
2018-01-07T01:45:21.867Z,7.80
2018-01-07T01:47:51.033Z,8.40
2018-01-07T01:50:20.058Z,8.57
2018-01-07T01:52:48.893Z,8.10
2018-01-07T01:55:17.981Z,8.07
2018-01-07T01:57:46.843Z,8.47
2018-01-07T02:00:15.734Z,7.93
2018-01-07T02:02:44.595Z,6.93
2018-01-07T02:05:13.485Z,8.83
2018-01-07T02:07:42.321Z,8.30
2018-01-07T02:10:12.060Z,8.50
2018-01-07T02:12:40.905Z,8.80
2018-01-07T02:15:09.884Z,8.80
2018-01-07T02:17:38.733Z,9.30
2018-01-07T02:20:07.599Z,9.50
2018-01-07T02:22:36.437Z,9.23
2018-01-07T02:25:05.969Z,9.13
2018-01-07T02:27:35.513Z,6.53
2018-01-07T02:30:04.358Z,9.43
2018-01-07T02:32:33.235Z,10.23
2018-01-07T02:35:02.098Z,10.30
2018-01-07T02:37:34.424Z,9.77
2018-01-07T02:40:04.015Z,9.83
2018-01-07T02:42:32.963Z,10.33
2018-01-07T02:45:01.818Z,9.87
2018-01-07T02:47:30.677Z,10.23
2018-01-07T02:49:59.548Z,11.13
2018-01-07T02:52:28.389Z,11.17
2018-01-07T02:54:57.275Z,10.43
2018-01-07T02:57:26.148Z,10.13
2018-01-07T02:59:54.984Z,10.73
2018-01-07T03:02:23.849Z,11.10
2018-01-07T03:04:52.690Z,10.70
2018-01-07T03:07:21.527Z,11.20
2018-01-07T03:09:50.430Z,11.60
2018-01-07T03:12:19.267Z,11.27
2018-01-07T03:14:48.801Z,11.67
2018-01-07T03:17:17.687Z,11.83
2018-01-07T03:19:46.523Z,11.03
2018-01-07T03:22:15.385Z,11.30
2018-01-07T03:24:44.287Z,12.40
2018-01-07T03:27:13.144Z,11.47
2018-01-07T03:29:41.989Z,12.07
2018-01-07T03:32:10.891Z,11.07
2018-01-07T03:34:39.742Z,11.37
2018-01-07T03:37:08.583Z,11.67
2018-01-07T03:39:37.459Z,11.60
2018-01-07T03:42:06.303Z,12.37
2018-01-07T03:44:35.691Z,12.03
2018-01-07T03:47:04.583Z,11.53
2018-01-07T03:49:33.469Z,10.77
2018-01-07T03:52:11.258Z,11.63
2018-01-07T03:54:40.753Z,11.20
2018-01-07T03:57:09.611Z,11.10
2018-01-07T03:59:38.463Z,11.03
2018-01-07T04:02:07.308Z,10.70
2018-01-07T04:04:36.269Z,10.50
2018-01-07T04:07:05.135Z,11.20
2018-01-07T04:09:34.016Z,11.07
2018-01-07T04:12:02.870Z,10.57
2018-01-07T04:14:31.695Z,10.47
2018-01-07T04:17:00.527Z,10.70
2018-01-07T04:19:29.433Z,10.97
2018-01-07T04:21:58.323Z,9.87
2018-01-07T04:24:27.795Z,10.93
2018-01-07T04:26:57.631Z,9.37
2018-01-07T04:29:26.471Z,10.37
2018-01-07T04:31:55.356Z,9.80
2018-01-07T04:34:24.191Z,9.83
2018-01-07T04:36:53.036Z,10.20
2018-01-07T04:39:21.976Z,9.93
2018-01-07T04:41:50.844Z,9.63
2018-01-07T04:44:19.683Z,9.20
2018-01-07T04:46:48.579Z,10.10
2018-01-07T04:49:17.483Z,9.80
2018-01-07T04:51:46.363Z,10.07
2018-01-07T04:54:15.231Z,9.40
2018-01-07T04:56:44.090Z,10.23
2018-01-07T04:59:12.958Z,9.70
2018-01-07T05:01:41.807Z,9.37
2018-01-07T05:04:10.735Z,10.10
2018-01-07T05:06:39.834Z,9.93
2018-01-07T05:09:08.708Z,10.10
2018-01-07T05:11:38.035Z,9.10
2018-01-07T05:14:07.133Z,8.73
2018-01-07T05:16:35.985Z,9.70
2018-01-07T05:19:05.590Z,10.10
2018-01-07T05:21:34.479Z,10.53
2018-01-07T05:24:03.355Z,9.37
2018-01-07T05:26:32.195Z,10.10
2018-01-07T05:29:01.036Z,9.27
2018-01-07T05:31:29.948Z,10.67
2018-01-07T05:33:58.785Z,9.97
2018-01-07T05:36:27.627Z,9.87
2018-01-07T05:38:56.501Z,10.87
2018-01-07T05:41:25.367Z,9.53
2018-01-07T05:43:54.248Z,10.43
2018-01-07T05:46:23.115Z,9.40
2018-01-07T05:48:51.967Z,10.07
2018-01-07T05:51:20.800Z,9.70
2018-01-07T05:53:49.652Z,9.40
2018-01-07T05:56:18.500Z,9.67
2018-01-07T05:58:47.341Z,10.20
2018-01-07T06:01:16.213Z,9.83
2018-01-07T06:03:45.113Z,10.13
2018-01-07T06:06:14.618Z,9.13
2018-01-07T06:08:43.493Z,10.90
2018-01-07T06:11:12.887Z,10.50
2018-01-07T06:13:41.727Z,9.50
2018-01-07T06:16:11.199Z,10.03
2018-01-07T06:18:40.789Z,9.87
2018-01-07T06:21:10.176Z,9.03
2018-01-07T06:23:39.079Z,9.97
2018-01-07T06:26:07.923Z,9.93
2018-01-07T06:28:37.690Z,9.60
2018-01-07T06:31:06.525Z,9.83
2018-01-07T06:33:35.369Z,9.87
2018-01-07T06:36:04.255Z,9.40
2018-01-07T06:38:33.099Z,9.40
2018-01-07T06:41:01.984Z,8.77
2018-01-07T06:43:31.835Z,9.73
2018-01-07T06:46:00.677Z,8.90
2018-01-07T06:48:29.563Z,8.83
2018-01-07T06:50:58.400Z,9.40
2018-01-07T06:53:27.241Z,8.63
2018-01-07T06:55:56.175Z,9.47
2018-01-07T06:58:25.066Z,9.00
2018-01-07T07:00:54.542Z,9.27
2018-01-07T07:03:23.405Z,8.97
2018-01-07T07:05:52.233Z,8.90
2018-01-07T07:08:21.101Z,8.07
2018-01-07T07:10:50.431Z,8.70
2018-01-07T07:13:19.319Z,8.87
2018-01-07T07:15:48.220Z,8.47
2018-01-07T07:18:17.921Z,8.40
2018-01-07T07:20:46.763Z,8.57
2018-01-07T07:23:15.618Z,7.47
2018-01-07T07:25:44.465Z,7.93
2018-01-07T07:28:13.325Z,8.30
2018-01-07T07:30:43.188Z,8.53
2018-01-07T07:33:12.335Z,8.40
2018-01-07T07:35:41.885Z,8.00
2018-01-07T07:38:11.060Z,8.20
2018-01-07T07:40:39.904Z,7.80
2018-01-07T07:43:08.743Z,8.50
2018-01-07T07:45:37.614Z,8.77
2018-01-07T07:48:06.468Z,8.83
2018-01-07T07:50:35.405Z,8.03
2018-01-07T07:53:04.252Z,8.23
2018-01-07T07:55:33.087Z,7.63
2018-01-07T07:58:01.976Z,8.27
2018-01-07T08:00:31.680Z,8.67
2018-01-07T08:03:00.526Z,8.10
2018-01-07T08:05:34.115Z,8.47
2018-01-07T08:08:02.991Z,8.07
2018-01-07T08:10:31.891Z,8.17
2018-01-07T08:13:00.729Z,8.30
2018-01-07T08:15:29.583Z,7.87
2018-01-07T08:17:59.388Z,8.53
2018-01-07T08:20:28.237Z,8.10
2018-01-07T08:22:57.644Z,7.70
2018-01-07T08:25:26.536Z,7.63
2018-01-07T08:27:55.371Z,7.83
2018-01-07T08:30:24.253Z,7.60
2018-01-07T08:32:53.551Z,7.97
2018-01-07T08:35:24.793Z,6.97
2018-01-07T08:37:54.381Z,7.97
2018-01-07T08:40:23.235Z,7.43
2018-01-07T08:42:52.072Z,7.40
2018-01-07T08:45:20.975Z,6.87
2018-01-07T08:47:50.115Z,6.40
2018-01-07T08:50:20.714Z,8.00
2018-01-07T08:52:49.586Z,7.50
2018-01-07T08:55:18.548Z,7.10
2018-01-07T08:57:47.400Z,7.40
2018-01-07T09:00:16.299Z,7.63
2018-01-07T09:02:45.143Z,6.63
2018-01-07T09:05:13.995Z,7.27
2018-01-07T09:07:42.871Z,7.30
2018-01-07T09:10:11.707Z,6.73
2018-01-07T09:12:41.143Z,6.60
2018-01-07T09:15:10.035Z,7.17
2018-01-07T09:17:39.535Z,5.77
2018-01-07T09:20:08.389Z,6.50
2018-01-07T09:22:37.310Z,6.20
2018-01-07T09:25:06.145Z,6.47
2018-01-07T09:27:35.669Z,5.97
2018-01-07T09:30:04.553Z,5.83
2018-01-07T09:32:33.397Z,5.63
2018-01-07T09:35:02.275Z,6.20
2018-01-07T09:37:31.115Z,5.67
2018-01-07T09:39:59.982Z,5.30
2018-01-07T09:42:28.864Z,5.87
2018-01-07T09:44:57.720Z,5.33
2018-01-07T09:47:26.557Z,5.43
2018-01-07T09:49:55.412Z,5.57
2018-01-07T09:52:24.265Z,5.20
2018-01-07T09:54:53.364Z,4.97
2018-01-07T09:57:23.934Z,4.30
2018-01-07T09:59:52.786Z,5.03
2018-01-07T10:02:21.630Z,4.83
2018-01-07T10:04:50.543Z,4.70
2018-01-07T10:07:19.384Z,4.77
2018-01-07T10:09:48.220Z,4.40
2018-01-07T10:12:17.758Z,4.60
2018-01-07T10:14:46.870Z,4.50
2018-01-07T10:17:15.744Z,4.10
2018-01-07T10:19:44.599Z,4.57
2018-01-07T10:22:20.484Z,4.03
2018-01-07T10:24:49.403Z,4.30
2018-01-07T10:27:24.100Z,4.27
2018-01-07T10:29:55.129Z,4.40
2018-01-07T10:32:25.550Z,4.17
2018-01-07T10:34:54.822Z,4.00
2018-01-07T10:37:23.678Z,4.43
2018-01-07T10:39:52.499Z,4.33
2018-01-07T10:42:21.379Z,6.90
2018-01-07T10:44:50.244Z,4.60
2018-01-07T10:47:19.084Z,4.97
2018-01-07T10:49:47.967Z,4.47
2018-01-07T10:52:17.768Z,4.00
2018-01-07T10:54:46.684Z,4.80
2018-01-07T10:57:15.543Z,4.03
2018-01-07T10:59:44.404Z,4.13
2018-01-07T11:02:19.186Z,4.57
2018-01-07T11:04:48.201Z,4.20
2018-01-07T11:07:17.051Z,3.70
2018-01-07T11:09:46.467Z,3.77
2018-01-07T11:12:15.378Z,4.23
2018-01-07T11:14:44.252Z,3.97
2018-01-07T11:17:15.266Z,4.20
2018-01-07T11:19:45.149Z,3.00
2018-01-07T11:22:14.036Z,4.17
2018-01-07T11:24:42.872Z,3.80
2018-01-07T11:27:11.741Z,4.00
2018-01-07T11:29:40.590Z,4.10
2018-01-07T11:32:09.444Z,4.30
2018-01-07T11:34:38.358Z,4.07
2018-01-07T11:37:07.201Z,3.87
2018-01-07T11:39:36.863Z,3.90
2018-01-07T11:42:05.754Z,3.87
2018-01-07T11:44:36.595Z,3.77
2018-01-07T11:47:09.705Z,3.67
2018-01-07T11:49:41.622Z,3.80
2018-01-07T11:57:29.505Z,3.80
2018-01-07T11:59:58.336Z,3.90
2018-01-07T12:02:27.200Z,3.70
2018-01-07T12:04:56.070Z,3.63
2018-01-07T12:07:25.223Z,3.30
2018-01-07T12:09:54.072Z,3.80
2018-01-07T12:12:22.954Z,3.70
2018-01-07T12:14:52.039Z,3.30
2018-01-07T12:17:20.886Z,3.50
2018-01-07T12:19:50.332Z,3.30
2018-01-07T12:22:19.166Z,3.70
2018-01-07T12:24:48.180Z,4.00
2018-01-07T12:27:17.760Z,3.30
2018-01-07T12:29:46.600Z,3.23
2018-01-07T12:32:16.404Z,3.03
2018-01-07T12:34:45.313Z,3.33
2018-01-07T12:37:14.132Z,3.53
2018-01-07T12:39:43.258Z,3.40
2018-01-07T12:42:12.132Z,3.20
2018-01-07T12:44:40.980Z,3.20
2018-01-07T12:47:09.816Z,3.00
2018-01-07T12:49:38.698Z,3.27
2018-01-07T12:52:07.592Z,3.60
2018-01-07T12:54:37.914Z,3.20
2018-01-07T12:57:07.504Z,3.47
2018-01-07T12:59:37.802Z,3.27
2018-01-07T13:02:06.648Z,3.13
2018-01-07T13:04:38.220Z,3.27
2018-01-07T13:07:08.797Z,3.60
2018-01-07T13:09:43.718Z,3.40
2018-01-07T13:12:14.022Z,3.50
2018-01-07T13:14:44.870Z,3.90
2018-01-07T13:17:19.915Z,4.17
2018-01-07T13:19:52.805Z,3.40
2018-01-07T13:22:27.894Z,3.70
2018-01-07T13:24:57.376Z,3.30
2018-01-07T13:27:28.614Z,3.73
2018-01-07T13:30:00.276Z,3.70
2018-01-07T13:35:05.460Z,3.37
2018-01-07T13:40:08.812Z,3.43
2018-01-07T13:42:39.352Z,3.60
2018-01-07T13:45:08.541Z,3.60
2018-01-07T13:47:37.412Z,3.53
2018-01-07T13:50:06.241Z,3.77
2018-01-07T13:52:35.088Z,3.57
2018-01-07T13:55:04.004Z,3.70
2018-01-07T13:57:32.840Z,3.67
2018-01-07T14:00:01.690Z,3.40
2018-01-07T14:02:31.268Z,3.20
2018-01-07T14:05:00.748Z,3.47
2018-01-07T14:07:29.585Z,3.20
2018-01-07T14:09:58.444Z,3.20
2018-01-07T14:12:27.355Z,3.00
2018-01-07T14:14:56.188Z,3.37
2018-01-07T14:17:25.057Z,3.30
2018-01-07T14:19:55.096Z,3.90
2018-01-07T14:22:23.996Z,3.47
2018-01-07T14:24:53.904Z,3.57
2018-01-07T14:27:22.734Z,3.40
2018-01-07T14:29:51.604Z,4.07
2018-01-07T14:32:20.476Z,3.30
2018-01-07T14:34:49.400Z,3.50
2018-01-07T14:37:18.256Z,3.23
2018-01-07T14:39:47.116Z,3.30
2018-01-07T14:42:15.972Z,3.53
2018-01-07T14:44:44.816Z,3.50
2018-01-07T14:47:13.732Z,4.20
2018-01-07T14:49:42.576Z,3.53
2018-01-07T14:52:12.350Z,4.20
2018-01-07T14:54:41.206Z,3.53
2018-01-07T14:57:11.252Z,3.97
2018-01-07T14:59:40.096Z,3.97
2018-01-07T15:02:09.005Z,3.80
2018-01-07T15:04:37.844Z,3.83
2018-01-07T15:07:06.700Z,3.83
2018-01-07T15:09:35.567Z,3.90
2018-01-07T15:12:04.455Z,4.63
2018-01-07T15:14:33.300Z,4.70
2018-01-07T15:17:02.207Z,3.50
2018-01-07T15:19:31.045Z,3.70
2018-01-07T15:21:59.899Z,3.73
2018-01-07T15:24:28.823Z,4.00
2018-01-07T15:26:57.659Z,3.83
2018-01-07T15:29:26.512Z,3.90
2018-01-07T15:31:55.434Z,4.37
2018-01-07T15:34:24.276Z,4.27
2018-01-07T15:36:53.464Z,4.53
2018-01-07T15:39:23.118Z,3.67
2018-01-07T15:41:51.978Z,4.07
2018-01-07T15:44:20.862Z,4.00
2018-01-07T15:46:49.747Z,4.50
2018-01-07T15:49:18.597Z,4.20
2018-01-07T15:51:47.449Z,4.47
2018-01-07T15:54:16.547Z,4.80
2018-01-07T15:56:45.402Z,3.97
2018-01-07T15:59:17.340Z,4.40
2018-01-07T16:01:46.192Z,4.20
2018-01-07T16:04:15.048Z,4.67
2018-01-07T16:06:43.899Z,4.30
2018-01-07T16:09:12.753Z,4.80
2018-01-07T16:11:41.655Z,4.17
2018-01-07T16:14:10.530Z,4.90
2018-01-07T16:16:39.439Z,4.37
2018-01-07T16:19:08.284Z,4.20
2018-01-07T16:21:37.190Z,3.87
2018-01-07T16:24:06.040Z,4.47
2018-01-07T16:26:34.892Z,4.03
2018-01-07T16:29:03.838Z,4.50
2018-01-07T16:31:32.650Z,4.43
2018-01-07T16:34:01.997Z,4.33
2018-01-07T16:36:30.877Z,4.90
2018-01-07T16:38:59.720Z,4.67
2018-01-07T16:41:28.570Z,5.10
2018-01-07T16:43:57.516Z,4.30
2018-01-07T16:46:29.156Z,4.70
2018-01-07T16:49:00.581Z,4.70
2018-01-07T16:51:29.420Z,4.97
2018-01-07T16:53:59.175Z,4.63
2018-01-07T16:56:28.330Z,4.60
2018-01-07T16:58:57.163Z,5.10
2018-01-07T17:01:26.054Z,4.60
2018-01-07T17:03:55.197Z,4.30
2018-01-07T17:06:24.059Z,4.63
2018-01-07T17:08:52.944Z,4.67
2018-01-07T17:11:21.832Z,5.50
2018-01-07T17:13:50.695Z,6.13
2018-01-07T17:16:19.572Z,4.63
2018-01-07T17:18:48.439Z,4.93
2018-01-07T17:21:17.290Z,6.73
2018-01-07T17:23:46.202Z,6.13
2018-01-07T17:26:15.083Z,6.57
2018-01-07T17:28:43.999Z,5.00
2018-01-07T17:31:12.847Z,4.90
2018-01-07T17:33:41.705Z,5.07
2018-01-07T17:36:10.556Z,4.20
2018-01-07T17:38:39.470Z,5.07
2018-01-07T17:41:08.317Z,5.37
2018-01-07T17:43:37.504Z,4.80
2018-01-07T17:46:06.458Z,4.60
2018-01-07T17:48:35.298Z,4.83
2018-01-07T17:51:04.388Z,4.63
2018-01-07T17:53:34.082Z,5.17
2018-01-07T17:56:03.006Z,4.77
2018-01-07T17:58:31.868Z,5.00
2018-01-07T18:01:00.736Z,4.80
2018-01-07T18:03:30.252Z,4.63
2018-01-07T18:05:59.842Z,4.73
2018-01-07T18:08:28.700Z,4.60
2018-01-07T18:10:57.588Z,5.03
2018-01-07T18:13:26.504Z,5.30
2018-01-07T18:15:55.376Z,5.10
2018-01-07T18:18:24.234Z,4.70
2018-01-07T18:20:53.106Z,4.80
2018-01-07T18:23:25.489Z,5.90
2018-01-07T18:25:54.364Z,5.50
2018-01-07T18:28:23.253Z,5.60
2018-01-07T18:31:05.433Z,5.70
2018-01-07T18:33:39.178Z,5.63
2018-01-07T18:36:08.995Z,5.20
2018-01-07T18:38:39.088Z,5.57
2018-01-07T18:41:07.945Z,5.20
2018-01-07T18:43:36.817Z,5.53
2018-01-07T18:46:06.244Z,5.07
2018-01-07T18:48:37.125Z,5.53
2018-01-07T18:51:05.984Z,4.80
2018-01-07T18:53:34.820Z,4.87
2018-01-07T18:56:03.812Z,4.90
2018-01-07T18:58:32.942Z,4.90
2018-01-07T19:01:02.841Z,5.10
2018-01-07T19:03:32.583Z,5.97
2018-01-07T19:06:02.702Z,4.73
2018-01-07T19:08:32.495Z,5.13
2018-01-07T19:11:01.461Z,5.17
2018-01-07T19:13:31.528Z,4.90
2018-01-07T19:16:00.409Z,4.80
2018-01-07T19:18:29.254Z,5.30
2018-01-07T19:20:58.100Z,4.30
2018-01-07T19:23:26.968Z,5.17
2018-01-07T19:25:55.805Z,4.93
2018-01-07T19:28:24.654Z,5.23
2018-01-07T19:30:54.013Z,4.73
2018-01-07T19:33:22.845Z,5.03
2018-01-07T19:35:52.605Z,5.17
2018-01-07T19:38:21.456Z,4.10
2018-01-07T19:40:50.291Z,4.87
2018-01-07T19:43:19.134Z,3.47
2018-01-07T19:45:48.005Z,4.97
2018-01-07T19:48:17.471Z,5.13
2018-01-07T19:50:46.599Z,5.10
2018-01-07T19:53:15.698Z,5.23
2018-01-07T19:55:44.543Z,5.33
2018-01-07T19:58:13.428Z,4.60
2018-01-07T20:00:42.594Z,5.10
2018-01-07T20:03:13.847Z,6.90
2018-01-07T20:05:47.908Z,5.30
2018-01-07T20:08:19.845Z,5.20
2018-01-07T20:10:49.686Z,4.10
2018-01-07T20:13:18.629Z,4.97
2018-01-07T20:15:47.486Z,4.47
2018-01-07T20:18:16.727Z,5.27
2018-01-07T20:20:45.896Z,5.30
2018-01-07T20:23:15.099Z,5.67
2018-01-07T20:25:49.230Z,5.10
2018-01-07T20:33:45.017Z,8.47
2018-01-07T20:36:16.710Z,21.40
2018-01-07T20:38:47.213Z,8.13
2018-01-07T20:41:19.751Z,6.33
2018-01-07T20:43:49.619Z,14.40
2018-01-07T20:46:19.453Z,5.50
2018-01-07T20:48:48.538Z,5.80
2018-01-07T20:51:19.110Z,10.20
2018-01-07T20:53:48.219Z,6.37
2018-01-07T20:56:17.339Z,4.53
2018-01-07T20:58:53.783Z,5.30
2018-01-07T21:01:28.207Z,4.70
2018-01-07T21:06:38.577Z,4.23
2018-01-07T21:09:11.659Z,4.10
2018-01-07T21:11:41.849Z,4.70
2018-01-07T21:14:15.185Z,4.43
2018-01-07T21:16:44.883Z,4.50
2018-01-07T21:19:15.025Z,4.30
2018-01-07T21:21:45.653Z,4.47
2018-01-07T21:24:14.845Z,4.40
2018-01-07T21:26:46.395Z,4.27
2018-01-07T21:32:03.017Z,4.00
2018-01-07T21:34:31.904Z,3.87
2018-01-07T21:37:02.077Z,4.07
2018-01-07T21:39:32.128Z,4.13
2018-01-07T21:42:00.992Z,4.40
2018-01-07T21:44:33.492Z,4.30
2018-01-07T21:47:02.440Z,3.97
2018-01-07T21:52:08.127Z,3.93
2018-01-07T21:54:38.493Z,3.80
2018-01-07T21:57:08.129Z,4.17
2018-01-07T21:59:53.085Z,4.03
2018-01-07T22:02:28.649Z,4.03
2018-01-07T22:05:00.339Z,3.80
2018-01-07T22:07:29.296Z,4.20
2018-01-07T22:10:01.745Z,4.23
2018-01-07T22:12:32.147Z,3.77
2018-01-07T22:15:01.969Z,4.37
2018-01-07T22:17:31.188Z,3.90
2018-01-07T22:20:00.639Z,4.50
2018-01-07T22:22:29.492Z,4.20
2018-01-07T22:24:58.380Z,4.20
2018-01-07T22:27:27.347Z,3.80
2018-01-07T22:29:56.527Z,4.10
2018-01-07T22:32:29.179Z,4.40
2018-01-07T22:35:00.232Z,4.20
2018-01-07T22:37:31.429Z,3.93
2018-01-07T22:40:03.465Z,3.80
2018-01-07T22:42:33.325Z,3.90
2018-01-07T22:45:07.178Z,4.27
2018-01-07T22:47:43.176Z,3.90
2018-01-07T22:50:12.066Z,4.00
2018-01-07T22:55:22.335Z,4.67
2018-01-07T23:00:36.233Z,4.33
2018-01-07T23:03:06.603Z,4.07
2018-01-07T23:05:35.446Z,4.63
2018-01-07T23:08:04.297Z,4.50
2018-01-07T23:13:07.689Z,4.13
2018-01-07T23:15:36.627Z,4.27
2018-01-07T23:18:05.479Z,4.73
2018-01-07T23:20:41.747Z,4.50
2018-01-07T23:23:11.496Z,4.40
2018-01-07T23:25:40.331Z,4.60
2018-01-07T23:28:10.138Z,4.40
2018-01-07T23:30:39.007Z,4.33
2018-01-07T23:33:07.861Z,4.57
2018-01-07T23:35:37.099Z,4.77
2018-01-07T23:38:06.287Z,4.57
2018-01-07T23:43:21.541Z,5.37
2018-01-07T23:45:50.449Z,5.00
2018-01-07T23:48:22.256Z,4.80
2018-01-07T23:50:57.090Z,4.60
2018-01-07T23:53:25.963Z,5.77
2018-01-07T23:55:59.665Z,5.00
2018-01-07T23:58:30.703Z,4.87
